Time,TemperatureF,DewpointF,PressureIn,WindDirection,WindDirectionDegrees,WindSpeedMPH,WindSpeedGustMPH,Humidity,HourlyPrecipIn,Conditions,Clouds,dailyrainin,SoftwareType,DateUTC
2013-10-02 00:13:00,74.0,71.0,29.72,NW,315,0.0,0.0,90,0.00,,,0.00,,2013-10-02 05:13:00,
2013-10-02 00:22:00,74.0,71.0,29.72,NW,315,0.0,0.0,90,0.00,,,0.00,,2013-10-02 05:22:00,
2013-10-02 00:43:00,74.0,71.0,29.72,NW,315,0.0,0.0,91,0.00,,,0.00,,2013-10-02 05:43:00,
2013-10-02 00:53:00,74.0,71.0,29.72,NW,315,0.0,0.0,91,0.00,,,0.00,,2013-10-02 05:53:00,
2013-10-02 01:03:00,74.0,71.0,29.72,NW,315,0.0,0.0,91,0.00,,,0.00,,2013-10-02 06:03:00,
2013-10-02 01:22:00,74.0,72.0,29.72,NW,315,0.0,1.0,93,0.00,,,0.00,,2013-10-02 06:22:00,
2013-10-02 01:42:00,74.0,71.0,29.72,North,360,0.0,0.0,91,0.00,,,0.00,,2013-10-02 06:42:00,
2013-10-02 01:52:00,73.0,70.0,29.72,North,360,0.0,1.0,91,0.00,,,0.00,,2013-10-02 06:52:00,
2013-10-02 02:12:00,73.0,70.0,29.72,NW,315,0.0,0.0,91,0.00,,,0.00,,2013-10-02 07:12:00,
2013-10-02 02:22:00,73.0,70.0,29.73,West,270,0.0,0.0,91,0.00,,,0.00,,2013-10-02 07:22:00,
2013-10-02 02:42:00,72.0,70.0,29.73,West,270,0.0,0.0,92,0.00,,,0.00,,2013-10-02 07:42:00,
2013-10-02 02:52:00,72.0,70.0,29.73,NW,315,0.0,0.0,93,0.00,,,0.00,,2013-10-02 07:52:00,
2013-10-02 03:11:00,72.0,70.0,29.73,North,360,0.0,0.0,94,0.00,,,0.00,,2013-10-02 08:11:00,
2013-10-02 03:22:00,72.0,70.0,29.73,North,360,0.0,0.0,95,0.00,,,0.00,,2013-10-02 08:22:00,
2013-10-02 03:42:00,72.0,70.0,29.72,West,270,0.0,0.0,95,0.00,,,0.00,,2013-10-02 08:42:00,
2013-10-02 03:52:00,72.0,70.0,29.72,West,270,0.0,0.0,95,0.00,,,0.00,,2013-10-02 08:52:00,
2013-10-02 04:11:00,72.0,71.0,29.73,NW,315,0.0,0.0,96,0.00,,,0.00,,2013-10-02 09:11:00,
2013-10-02 04:21:00,72.0,71.0,29.73,West,270,0.0,0.0,97,0.00,,,0.00,,2013-10-02 09:21:00,
2013-10-02 04:33:00,72.0,71.0,29.73,West,270,0.0,0.0,97,0.00,,,0.00,,2013-10-02 09:33:00,
2013-10-02 04:43:00,72.0,71.0,29.73,West,270,0.0,0.0,97,0.00,,,0.00,,2013-10-02 09:43:00,
2013-10-02 04:54:00,72.0,72.0,29.73,North,360,0.0,0.0,100,0.00,,,0.00,,2013-10-02 09:54:00,
2013-10-02 05:12:00,72.0,72.0,29.73,NW,315,0.0,1.0,99,0.00,,,0.00,,2013-10-02 10:12:00,
2013-10-02 05:23:00,72.0,72.0,29.74,NW,315,0.0,0.0,99,0.00,,,0.00,,2013-10-02 10:23:00,
2013-10-02 05:42:00,72.0,72.0,29.73,NW,315,0.0,0.0,99,0.00,,,0.00,,2013-10-02 10:42:00,
2013-10-02 05:52:00,72.0,72.0,29.73,NW,315,0.0,0.0,99,0.00,,,0.00,,2013-10-02 10:52:00,
2013-10-02 06:03:00,72.0,72.0,29.73,NW,315,0.0,0.0,99,0.00,,,0.00,,2013-10-02 11:03:00,
2013-10-02 06:12:00,72.0,72.0,29.73,NW,315,0.0,0.0,99,0.00,,,0.00,,2013-10-02 11:12:00,
2013-10-02 06:22:00,72.0,72.0,29.74,NW,315,0.0,1.0,99,0.00,,,0.00,,2013-10-02 11:22:00,
2013-10-02 06:52:00,72.0,72.0,29.75,North,360,0.0,0.0,99,0.00,,,0.00,,2013-10-02 11:52:00,
2013-10-02 07:12:00,72.0,72.0,29.75,North,360,0.0,0.0,99,0.00,,,0.00,,2013-10-02 12:12:00,
2013-10-02 07:22:00,72.0,72.0,29.75,NW,315,0.0,0.0,99,0.00,,,0.00,,2013-10-02 12:22:00,
2013-10-02 07:42:00,72.0,72.0,29.75,NW,315,0.0,0.0,99,0.00,,,0.00,,2013-10-02 12:42:00,
2013-10-02 07:52:00,72.0,72.0,29.76,North,360,0.0,0.0,99,0.00,,,0.00,,2013-10-02 12:52:00,
2013-10-02 08:11:00,72.0,72.0,29.76,North,360,0.0,0.0,99,0.00,,,0.00,,2013-10-02 13:11:00,
2013-10-02 08:22:00,72.0,72.0,29.76,North,360,0.0,0.0,99,0.00,,,0.00,,2013-10-02 13:22:00,
2013-10-02 08:52:00,73.0,73.0,29.77,NW,315,0.0,0.0,99,0.00,,,0.00,,2013-10-02 13:52:00,
2013-10-02 09:11:00,73.0,73.0,29.78,NW,315,0.0,0.0,99,0.00,,,0.00,,2013-10-02 14:11:00,
2013-10-02 09:21:00,73.0,73.0,29.78,NW,315,0.0,0.0,99,0.00,,,0.00,,2013-10-02 14:21:00,
2013-10-02 09:32:00,73.0,73.0,29.78,NW,315,0.0,0.0,99,0.00,,,0.00,,2013-10-02 14:32:00,
2013-10-02 09:42:00,73.0,73.0,29.78,NW,315,0.0,0.0,99,0.00,,,0.00,,2013-10-02 14:42:00,
2013-10-02 09:52:00,73.0,73.0,29.78,NW,315,0.0,0.0,99,0.00,,,0.00,,2013-10-02 14:52:00,
2013-10-02 10:11:00,74.0,73.0,29.78,North,360,0.0,0.0,96,0.00,,,0.00,,2013-10-02 15:11:00,
2013-10-02 10:22:00,76.0,74.0,29.78,NW,315,0.0,1.0,92,0.00,,,0.00,,2013-10-02 15:22:00,
2013-10-02 10:43:00,77.0,72.0,29.78,North,360,0.0,4.0,85,0.00,,,0.00,,2013-10-02 15:43:00,
2013-10-02 10:54:00,77.0,72.0,29.79,NE,45,0.0,0.0,84,0.00,,,0.00,,2013-10-02 15:54:00,
2013-10-02 11:12:00,77.0,71.0,29.79,North,360,0.0,3.0,81,0.00,,,0.00,,2013-10-02 16:12:00,
2013-10-02 11:23:00,77.0,71.0,29.79,North,360,0.0,3.0,81,0.00,,,0.00,,2013-10-02 16:23:00,
2013-10-02 11:52:00,80.0,69.0,29.78,NE,45,1.0,7.0,69,0.00,,,0.00,,2013-10-02 16:52:00,
2013-10-02 12:12:00,80.0,68.0,29.78,North,360,0.0,6.0,66,0.00,,,0.00,,2013-10-02 17:12:00,
2013-10-02 12:23:00,80.0,68.0,29.78,North,360,0.0,6.0,66,0.00,,,0.00,,2013-10-02 17:23:00,
2013-10-02 12:42:00,82.0,67.0,29.78,North,360,0.0,8.0,61,0.00,,,0.00,,2013-10-02 17:42:00,
2013-10-02 12:52:00,85.0,66.0,29.77,NE,45,1.0,6.0,54,0.00,,,0.00,,2013-10-02 17:52:00,
2013-10-02 13:12:00,85.0,66.0,29.76,North,360,0.0,8.0,53,0.00,,,0.00,,2013-10-02 18:12:00,
2013-10-02 13:21:00,83.0,66.0,29.76,NE,45,0.0,2.0,56,0.00,,,0.00,,2013-10-02 18:21:00,
2013-10-02 13:42:00,84.0,66.0,29.75,North,360,0.0,4.0,54,0.00,,,0.00,,2013-10-02 18:42:00,
2013-10-02 13:52:00,85.0,65.0,29.74,North,360,0.0,5.0,52,0.00,,,0.00,,2013-10-02 18:52:00,
2013-10-02 14:11:00,84.0,65.0,29.73,North,360,0.0,4.0,53,0.00,,,0.00,,2013-10-02 19:11:00,
2013-10-02 14:22:00,83.0,65.0,29.73,North,360,0.0,2.0,55,0.00,,,0.00,,2013-10-02 19:22:00,
2013-10-02 14:52:00,88.0,63.0,29.71,NE,45,0.0,4.0,43,0.00,,,0.00,,2013-10-02 19:52:00,
2013-10-02 15:11:00,88.0,63.0,29.70,North,360,0.0,4.0,44,0.00,,,0.00,,2013-10-02 20:11:00,
2013-10-02 15:22:00,88.0,63.0,29.70,North,360,0.0,4.0,44,0.00,,,0.00,,2013-10-02 20:22:00,
2013-10-02 15:42:00,88.0,62.0,29.68,NW,315,0.0,8.0,42,0.00,,,0.00,,2013-10-02 20:42:00,
2013-10-02 17:13:00,88.0,61.0,29.67,NE,45,0.0,2.0,40,0.00,,,0.00,,2013-10-02 22:13:00,
2013-10-02 18:12:00,87.0,61.0,29.67,North,360,0.0,2.0,42,0.00,,,0.00,,2013-10-02 23:12:00,
2013-10-02 18:22:00,88.0,61.0,29.67,North,360,0.0,4.0,41,0.00,,,0.00,,2013-10-02 23:22:00,
2013-10-02 18:42:00,87.0,60.0,29.67,North,360,0.0,1.0,41,0.00,,,0.00,,2013-10-02 23:42:00,
2013-10-02 18:52:00,87.0,60.0,29.67,North,360,0.0,1.0,41,0.00,,,0.00,,2013-10-02 23:52:00,
2013-10-02 19:12:00,84.0,62.0,29.67,North,360,0.0,1.0,47,0.00,,,0.00,,2013-10-03 00:12:00,
2013-10-02 19:22:00,81.0,62.0,29.67,North,360,0.0,0.0,53,0.00,,,0.00,,2013-10-03 00:22:00,
2013-10-02 19:32:00,81.0,62.0,29.67,North,360,0.0,0.0,53,0.00,,,0.00,,2013-10-03 00:32:00,
2013-10-02 19:42:00,81.0,62.0,29.67,North,360,0.0,0.0,53,0.00,,,0.00,,2013-10-03 00:42:00,
2013-10-02 19:52:00,81.0,62.0,29.67,North,360,0.0,0.0,53,0.00,,,0.00,,2013-10-03 00:52:00,
2013-10-02 20:11:00,78.0,63.0,29.67,North,360,0.0,0.0,61,0.00,,,0.00,,2013-10-03 01:11:00,
2013-10-02 20:23:00,78.0,63.0,29.67,North,360,0.0,0.0,61,0.00,,,0.00,,2013-10-03 01:23:00,
2013-10-02 20:32:00,78.0,63.0,29.67,North,360,0.0,0.0,61,0.00,,,0.00,,2013-10-03 01:32:00,
2013-10-02 20:52:00,76.0,65.0,29.68,NW,315,0.0,0.0,69,0.00,,,0.00,,2013-10-03 01:52:00,
2013-10-02 21:02:00,76.0,65.0,29.68,NW,315,0.0,0.0,69,0.00,,,0.00,,2013-10-03 02:02:00,
2013-10-02 21:11:00,76.0,65.0,29.68,NW,315,0.0,0.0,69,0.00,,,0.00,,2013-10-03 02:11:00,
2013-10-02 21:22:00,76.0,66.0,29.69,NW,315,0.0,0.0,72,0.00,,,0.00,,2013-10-03 02:22:00,
2013-10-02 21:32:00,76.0,66.0,29.69,NW,315,0.0,0.0,72,0.00,,,0.00,,2013-10-03 02:32:00,
2013-10-02 21:42:00,76.0,66.0,29.69,NW,315,0.0,0.0,72,0.00,,,0.00,,2013-10-03 02:42:00,
2013-10-02 21:52:00,76.0,66.0,29.69,NW,315,0.0,0.0,72,0.00,,,0.00,,2013-10-03 02:52:00,
2013-10-02 22:22:00,76.0,66.0,29.70,North,360,0.0,0.0,72,0.00,,,0.00,,2013-10-03 03:22:00,
2013-10-02 22:35:00,76.0,66.0,29.70,North,360,0.0,0.0,72,0.00,,,0.00,,2013-10-03 03:35:00,
2013-10-02 22:44:00,76.0,66.0,29.70,North,360,0.0,0.0,72,0.00,,,0.00,,2013-10-03 03:44:00,
2013-10-02 22:54:00,76.0,66.0,29.70,North,360,0.0,1.0,72,0.00,,,0.00,,2013-10-03 03:54:00,
2013-10-02 23:05:00,76.0,66.0,29.70,North,360,0.0,1.0,72,0.00,,,0.00,,2013-10-03 04:05:00,
2013-10-02 23:13:00,76.0,66.0,29.70,North,360,0.0,1.0,72,0.00,,,0.00,,2013-10-03 04:13:00,
2013-10-02 23:24:00,76.0,66.0,29.71,NW,315,0.0,0.0,72,0.00,,,0.00,,2013-10-03 04:24:00,
2013-10-02 23:44:00,76.0,67.0,29.71,NW,315,0.0,0.0,73,0.00,,,0.00,,2013-10-03 04:44:00,
2013-10-02 23:53:00,75.0,67.0,29.71,NW,315,0.0,0.0,76,0.00,,,0.00,,2013-10-03 04:53:00,